createdAt,value
2022-10-07T00:01:03.784Z,11.27
2022-10-07T00:03:31.390Z,11.27
2022-10-07T00:06:15.840Z,11.60
2022-10-07T00:08:46.322Z,11.87
2022-10-07T00:11:19.989Z,12.13
2022-10-07T00:13:49.507Z,11.30
2022-10-07T00:16:20.992Z,11.97
2022-10-07T00:18:51.259Z,11.57
2022-10-07T00:21:20.091Z,10.60
2022-10-07T00:23:49.039Z,10.13
2022-10-07T00:26:23.143Z,9.47
2022-10-07T00:28:50.709Z,9.47
2022-10-07T00:31:34.478Z,10.47
2022-10-07T00:34:03.919Z,10.53
2022-10-07T00:36:34.371Z,9.73
2022-10-07T00:39:08.220Z,8.40
2022-10-07T00:41:43.920Z,9.10
2022-10-07T00:44:32.553Z,9.40
2022-10-07T00:47:04.354Z,9.57
2022-10-07T00:49:40.005Z,9.07
2022-10-07T00:52:07.142Z,8.90
2022-10-07T00:54:34.852Z,8.77
2022-10-07T00:57:01.833Z,8.13
2022-10-07T00:59:28.736Z,9.17
2022-10-07T01:01:55.610Z,9.47
2022-10-07T01:04:22.575Z,8.80
2022-10-07T01:06:49.694Z,8.43
2022-10-07T01:09:16.695Z,9.27
2022-10-07T01:12:10.169Z,8.57
2022-10-07T01:14:57.208Z,8.80
2022-10-07T01:17:53.205Z,8.67
2022-10-07T01:20:40.436Z,8.37
2022-10-07T01:23:41.340Z,8.53
2022-10-07T01:26:27.396Z,8.73
2022-10-07T01:28:58.910Z,8.50
2022-10-07T01:31:40.507Z,7.83
2022-10-07T01:34:09.765Z,8.47
2022-10-07T01:36:38.395Z,7.97
2022-10-07T01:39:12.325Z,7.93
2022-10-07T01:41:40.348Z,7.90
2022-10-07T01:44:10.145Z,7.97
2022-10-07T01:46:37.992Z,7.90
2022-10-07T01:49:06.712Z,9.20
2022-10-07T01:51:38.857Z,8.47
2022-10-07T01:54:51.236Z,8.13
2022-10-07T01:57:29.148Z,7.73
2022-10-07T02:00:10.267Z,7.90
2022-10-07T02:03:08.493Z,8.03
2022-10-07T02:06:10.805Z,7.77
2022-10-07T02:08:50.545Z,7.87
2022-10-07T02:11:23.682Z,8.10
2022-10-07T02:14:16.672Z,8.30
2022-10-07T02:16:55.221Z,8.07
2022-10-07T02:19:28.998Z,7.60
2022-10-07T02:21:59.447Z,7.67
2022-10-07T02:24:29.886Z,8.03
2022-10-07T02:27:02.129Z,7.90
2022-10-07T02:29:33.237Z,7.60
2022-10-07T02:32:06.966Z,8.50
2022-10-07T02:34:35.991Z,7.73
2022-10-07T02:37:07.553Z,7.90
2022-10-07T02:39:34.621Z,7.97
2022-10-07T02:42:19.606Z,7.93
2022-10-07T02:45:12.547Z,8.27
2022-10-07T02:47:54.300Z,9.17
2022-10-07T02:50:26.495Z,9.27
2022-10-07T02:52:56.283Z,8.33
2022-10-07T02:55:27.081Z,9.20
2022-10-07T02:58:00.891Z,8.67
2022-10-07T03:00:31.607Z,8.27
2022-10-07T03:03:02.558Z,8.53
2022-10-07T03:05:42.835Z,9.17
2022-10-07T03:08:11.766Z,8.13
2022-10-07T03:10:41.246Z,8.47
2022-10-07T03:13:09.841Z,8.40
2022-10-07T03:15:42.633Z,8.63
2022-10-07T03:18:36.025Z,9.17
2022-10-07T03:21:16.221Z,9.37
2022-10-07T03:23:43.460Z,9.30
2022-10-07T03:26:12.044Z,9.23
2022-10-07T03:28:39.203Z,10.27
2022-10-07T03:31:10.307Z,9.80
2022-10-07T03:33:41.810Z,10.20
2022-10-07T03:36:09.653Z,9.57
2022-10-07T03:38:39.112Z,10.83
2022-10-07T03:41:06.429Z,10.50
2022-10-07T03:43:34.488Z,9.10
2022-10-07T03:46:04.294Z,9.13
2022-10-07T03:48:33.699Z,9.30
2022-10-07T03:51:02.198Z,9.97
2022-10-07T03:53:31.129Z,9.80
2022-10-07T03:56:00.410Z,9.70
2022-10-07T03:58:28.593Z,10.13
2022-10-07T04:01:13.962Z,9.93
2022-10-07T04:03:50.532Z,10.63
2022-10-07T04:06:18.519Z,9.77
2022-10-07T04:08:46.031Z,9.97
2022-10-07T04:11:13.447Z,9.60
2022-10-07T04:13:43.129Z,9.97
2022-10-07T04:16:13.181Z,9.63
2022-10-07T04:18:43.636Z,10.67
2022-10-07T04:21:11.370Z,10.30
2022-10-07T04:23:40.535Z,10.00
2022-10-07T04:26:12.780Z,9.30
2022-10-07T04:28:46.869Z,9.63
2022-10-07T04:31:18.416Z,10.33
2022-10-07T04:33:48.038Z,10.40
2022-10-07T04:36:20.757Z,9.70
2022-10-07T04:38:56.685Z,10.10
2022-10-07T04:41:28.061Z,11.03
2022-10-07T04:43:57.949Z,10.27
2022-10-07T04:46:29.227Z,12.53
2022-10-07T04:49:01.941Z,11.10
2022-10-07T04:51:31.217Z,11.80
2022-10-07T04:54:00.366Z,11.20
2022-10-07T04:56:33.677Z,10.63
2022-10-07T04:59:03.597Z,10.33
2022-10-07T05:01:30.802Z,9.83
2022-10-07T05:03:59.561Z,9.60
2022-10-07T05:06:27.397Z,8.70
2022-10-07T05:08:54.316Z,9.73
2022-10-07T05:11:22.855Z,8.77
2022-10-07T05:13:57.189Z,9.87
2022-10-07T05:16:25.280Z,8.87
2022-10-07T05:18:52.230Z,8.53
2022-10-07T05:21:19.245Z,8.63
2022-10-07T05:23:48.060Z,8.90
2022-10-07T05:26:20.633Z,8.70
2022-10-07T05:28:52.150Z,8.90
2022-10-07T05:31:26.340Z,9.23
2022-10-07T05:33:56.553Z,8.03
2022-10-07T05:36:25.609Z,9.00
2022-10-07T05:38:58.846Z,9.13
2022-10-07T05:41:41.197Z,8.63
2022-10-07T05:44:12.034Z,9.03
2022-10-07T05:46:40.293Z,9.80
2022-10-07T05:49:07.738Z,9.03
2022-10-07T05:51:36.234Z,8.50
2022-10-07T05:54:03.454Z,8.30
2022-10-07T05:56:40.454Z,8.40
2022-10-07T05:59:08.015Z,8.23
2022-10-07T06:01:36.756Z,8.60
2022-10-07T06:04:09.554Z,8.50
2022-10-07T06:06:39.809Z,7.70
2022-10-07T06:09:30.146Z,7.87
2022-10-07T06:12:17.809Z,7.77
2022-10-07T06:14:46.289Z,7.67
2022-10-07T06:17:13.240Z,7.97
2022-10-07T06:19:41.749Z,8.33
2022-10-07T06:22:09.340Z,7.90
2022-10-07T06:24:38.141Z,8.03
2022-10-07T06:27:05.431Z,8.33
2022-10-07T06:29:32.333Z,8.57
2022-10-07T06:32:00.278Z,8.23
2022-10-07T06:34:27.433Z,8.43
2022-10-07T06:36:55.985Z,8.57
2022-10-07T06:39:23.238Z,7.67
2022-10-07T06:41:54.485Z,8.40
2022-10-07T06:44:31.154Z,9.30
2022-10-07T06:46:58.739Z,9.20
2022-10-07T06:49:26.320Z,9.77
2022-10-07T06:51:54.485Z,9.00
2022-10-07T06:54:21.662Z,9.23
2022-10-07T06:56:48.731Z,10.37
2022-10-07T06:59:15.725Z,10.43
2022-10-07T07:01:51.728Z,10.27
2022-10-07T07:04:19.024Z,9.27
2022-10-07T07:06:46.714Z,10.50
2022-10-07T07:09:14.580Z,10.67
2022-10-07T07:11:45.213Z,11.50
2022-10-07T07:14:25.907Z,11.00
2022-10-07T07:17:03.904Z,10.65
2022-10-07T07:19:31.108Z,10.43
2022-10-07T07:21:58.716Z,10.60
2022-10-07T07:24:27.346Z,10.35
2022-10-07T07:26:54.282Z,10.40
2022-10-07T07:29:23.454Z,10.33
2022-10-07T07:31:55.161Z,10.15
2022-10-07T07:34:25.036Z,10.50
2022-10-07T07:36:52.547Z,10.25
2022-10-07T07:39:22.893Z,9.48
2022-10-07T07:41:55.984Z,8.50
2022-10-07T07:44:24.394Z,8.05
2022-10-07T07:46:54.464Z,7.88
2022-10-07T07:49:23.717Z,7.25
2022-10-07T07:51:51.581Z,7.38
2022-10-07T07:54:25.530Z,7.40
2022-10-07T07:56:53.321Z,6.97
2022-10-07T07:59:21.669Z,7.35
2022-10-07T08:01:51.157Z,6.35
2022-10-07T08:04:18.563Z,5.80
2022-10-07T08:06:45.670Z,5.70
2022-10-07T08:09:13.159Z,6.35
2022-10-07T08:11:45.336Z,5.20
2022-10-07T08:14:16.333Z,4.97
2022-10-07T08:16:44.136Z,4.47
2022-10-07T08:19:15.454Z,4.60
2022-10-07T08:21:42.547Z,2.85
2022-10-07T08:24:14.823Z,3.15
2022-10-07T08:26:41.766Z,2.83
2022-10-07T08:29:13.323Z,2.67
2022-10-07T08:31:42.601Z,2.75
2022-10-07T08:34:11.023Z,2.25
2022-10-07T08:36:38.285Z,2.75
2022-10-07T08:39:06.482Z,2.33
2022-10-07T08:42:01.328Z,2.60
2022-10-07T09:16:27.006Z,2.55
2022-10-07T09:19:00.786Z,3.03
2022-10-07T09:21:37.028Z,3.00
2022-10-07T09:24:24.900Z,8.57
2022-10-07T09:26:55.754Z,3.53
2022-10-07T09:29:27.149Z,2.08
2022-10-07T09:31:55.872Z,2.65
2022-10-07T09:34:29.851Z,2.20
2022-10-07T09:37:23.143Z,2.58
2022-10-07T09:39:53.014Z,1.80
2022-10-07T09:42:45.757Z,2.20
2022-10-07T09:45:28.254Z,2.20
2022-10-07T09:48:08.611Z,1.90
2022-10-07T09:50:42.786Z,2.33
2022-10-07T09:53:24.177Z,2.20
2022-10-07T09:55:54.090Z,1.60
2022-10-07T09:58:30.562Z,1.95
2022-10-07T10:01:01.262Z,1.80
2022-10-07T10:03:36.647Z,1.83
2022-10-07T10:06:07.369Z,1.30
2022-10-07T10:08:41.039Z,1.52
2022-10-07T10:11:28.173Z,1.17
2022-10-07T10:13:55.079Z,1.50
2022-10-07T10:16:25.045Z,1.45
2022-10-07T10:19:04.246Z,1.33
2022-10-07T10:21:36.914Z,1.38
2022-10-07T10:24:12.702Z,1.35
2022-10-07T10:27:10.139Z,1.65
2022-10-07T10:30:02.119Z,1.15
2022-10-07T10:32:48.704Z,1.75
2022-10-07T10:35:56.919Z,1.48
2022-10-07T10:38:46.987Z,1.73
2022-10-07T10:41:30.898Z,1.52
2022-10-07T10:44:19.298Z,1.92
2022-10-07T10:47:41.078Z,1.40
2022-10-07T10:50:51.422Z,1.73
2022-10-07T10:53:48.045Z,1.45
2022-10-07T10:56:46.032Z,1.40
2022-10-07T10:59:33.872Z,1.60
2022-10-07T11:02:39.293Z,1.80
2022-10-07T11:05:15.103Z,1.42
2022-10-07T11:07:56.583Z,1.70
2022-10-07T11:10:31.938Z,1.40
2022-10-07T11:13:19.121Z,1.40
2022-10-07T11:16:17.776Z,1.52
2022-10-07T11:19:37.454Z,1.20
2022-10-07T11:22:15.541Z,1.50
2022-10-07T11:24:50.894Z,1.60
2022-10-07T11:27:29.805Z,1.77
2022-10-07T11:30:23.303Z,1.45
2022-10-07T11:33:01.929Z,1.75
2022-10-07T11:35:36.283Z,1.75
2022-10-07T11:38:34.667Z,1.55
2022-10-07T11:41:13.608Z,1.25
2022-10-07T11:43:46.787Z,1.40
2022-10-07T11:46:38.816Z,1.50
2022-10-07T11:49:11.276Z,1.70
2022-10-07T11:51:54.987Z,1.77
2022-10-07T11:54:27.282Z,1.70
2022-10-07T11:56:58.414Z,1.65
2022-10-07T11:59:44.097Z,1.80
2022-10-07T12:02:29.536Z,1.80
2022-10-07T12:04:58.110Z,1.65
2022-10-07T12:07:44.919Z,1.80
2022-10-07T12:10:23.192Z,1.90
2022-10-07T12:13:21.665Z,1.85
2022-10-07T12:15:50.478Z,2.08
2022-10-07T12:18:27.659Z,1.80
2022-10-07T12:21:03.870Z,1.90
2022-10-07T12:23:35.429Z,2.22
2022-10-07T12:26:30.503Z,2.17
2022-10-07T12:28:57.933Z,1.70
2022-10-07T12:31:24.820Z,2.17
2022-10-07T12:34:48.382Z,1.65
2022-10-07T12:37:45.429Z,2.10
2022-10-07T12:40:18.578Z,1.90
2022-10-07T12:42:54.553Z,2.10
2022-10-07T12:45:24.406Z,1.83
2022-10-07T12:47:57.348Z,1.80
2022-10-07T12:50:25.614Z,1.80
2022-10-07T12:52:58.873Z,1.65
2022-10-07T12:55:39.002Z,1.80
2022-10-07T12:58:55.135Z,1.73
2022-10-07T13:01:57.804Z,1.88
2022-10-07T13:04:36.873Z,1.85
2022-10-07T13:07:46.099Z,1.92
2022-10-07T13:10:38.416Z,1.80
2022-10-07T13:13:20.258Z,1.98
2022-10-07T13:15:58.505Z,1.90
2022-10-07T13:18:45.052Z,2.20
2022-10-07T13:21:37.488Z,2.30
2022-10-07T13:24:04.528Z,2.22
2022-10-07T13:26:31.630Z,2.08
2022-10-07T13:29:01.574Z,1.95
2022-10-07T13:31:31.679Z,2.13
2022-10-07T13:34:01.396Z,2.22
2022-10-07T13:36:34.519Z,2.13
2022-10-07T13:39:20.568Z,2.05
2022-10-07T13:41:51.251Z,1.90
2022-10-07T13:44:20.919Z,2.38
2022-10-07T13:47:05.068Z,2.35
2022-10-07T13:49:43.642Z,2.45
2022-10-07T13:52:41.208Z,2.30
2022-10-07T13:55:28.354Z,2.30
2022-10-07T13:57:57.444Z,2.42
2022-10-07T14:00:26.642Z,2.22
2022-10-07T14:02:54.440Z,2.83
2022-10-07T14:05:46.358Z,2.90
2022-10-07T14:08:22.242Z,2.55
2022-10-07T14:11:04.619Z,3.17
2022-10-07T14:13:33.136Z,3.50
2022-10-07T14:16:00.286Z,3.15
2022-10-07T14:18:29.764Z,2.65
2022-10-07T14:21:09.840Z,2.80
2022-10-07T14:23:37.915Z,3.15
2022-10-07T14:26:11.090Z,3.10
2022-10-07T14:28:39.217Z,3.10
2022-10-07T14:31:29.827Z,2.63
2022-10-07T14:34:30.091Z,2.80
2022-10-07T14:37:27.286Z,2.70
2022-10-07T14:39:57.972Z,2.97
2022-10-07T14:42:36.154Z,3.03
2022-10-07T14:45:08.056Z,3.10
2022-10-07T14:47:37.958Z,2.90
2022-10-07T14:50:05.386Z,3.10
2022-10-07T14:52:46.185Z,2.97
2022-10-07T14:55:29.138Z,3.05
2022-10-07T14:57:56.082Z,3.53
2022-10-07T15:00:27.659Z,3.70
2022-10-07T15:02:54.735Z,3.10
2022-10-07T15:05:22.972Z,3.13
2022-10-07T15:07:50.309Z,3.17
2022-10-07T15:10:23.618Z,3.13
2022-10-07T15:12:51.368Z,3.30
2022-10-07T15:15:19.431Z,3.25
2022-10-07T15:17:46.484Z,3.10
2022-10-07T15:20:16.546Z,3.53
2022-10-07T15:22:45.344Z,2.90
2022-10-07T15:25:15.252Z,3.20
2022-10-07T15:27:42.758Z,4.50
2022-10-07T15:30:11.094Z,4.75
2022-10-07T15:32:38.168Z,5.65
2022-10-07T15:35:05.614Z,3.88
2022-10-07T15:37:33.543Z,4.43
2022-10-07T15:40:00.640Z,5.20
2022-10-07T15:42:27.519Z,5.32
2022-10-07T15:44:54.522Z,5.15
2022-10-07T15:47:21.663Z,5.60
2022-10-07T15:49:49.620Z,4.88
2022-10-07T15:52:16.890Z,4.97
2022-10-07T15:54:46.685Z,5.03
2022-10-07T15:57:14.441Z,4.88
2022-10-07T15:59:42.354Z,4.57
2022-10-07T16:02:17.761Z,4.60
2022-10-07T16:04:47.888Z,4.82
2022-10-07T16:07:16.453Z,4.97
2022-10-07T16:09:43.451Z,4.57
2022-10-07T16:12:10.535Z,4.82
2022-10-07T16:14:37.433Z,4.95
2022-10-07T16:17:04.356Z,4.82
2022-10-07T16:19:31.243Z,5.13
2022-10-07T16:21:58.213Z,5.63
2022-10-07T16:24:25.191Z,5.10
2022-10-07T16:26:53.044Z,5.55
2022-10-07T16:29:41.200Z,5.13
2022-10-07T16:32:10.822Z,5.20
2022-10-07T16:34:41.960Z,5.25
2022-10-07T16:37:08.949Z,6.22
2022-10-07T16:39:35.846Z,6.47
2022-10-07T16:42:02.860Z,7.63
2022-10-07T16:44:29.744Z,8.15
2022-10-07T16:46:57.775Z,8.55
2022-10-07T16:49:26.215Z,8.65
2022-10-07T16:51:54.335Z,8.57
2022-10-07T16:54:21.968Z,10.60
2022-10-07T16:56:52.669Z,10.15
2022-10-07T16:59:24.016Z,9.77
2022-10-07T17:01:55.463Z,9.02
2022-10-07T17:04:24.518Z,9.57
2022-10-07T17:06:51.626Z,27.83
2022-10-07T17:09:18.973Z,27.30
2022-10-07T17:11:46.709Z,17.98
2022-10-07T17:14:19.698Z,10.93
2022-10-07T17:16:59.238Z,9.45
2022-10-07T17:19:28.249Z,8.82
2022-10-07T17:21:57.291Z,8.18
2022-10-07T17:24:24.388Z,8.05
2022-10-07T17:26:55.141Z,8.85
2022-10-07T17:29:25.929Z,7.93
2022-10-07T17:31:52.838Z,6.85
2022-10-07T17:34:21.444Z,7.88
2022-10-07T17:36:50.218Z,7.53
2022-10-07T17:39:19.154Z,7.22
2022-10-07T17:41:46.346Z,6.95
2022-10-07T17:44:13.718Z,7.85
2022-10-07T17:46:42.387Z,8.23
2022-10-07T17:49:13.384Z,8.45
2022-10-07T17:51:42.633Z,8.10
2022-10-07T17:54:12.031Z,8.10
2022-10-07T17:56:38.946Z,8.32
2022-10-07T17:59:05.816Z,8.10
2022-10-07T18:01:34.807Z,8.32
2022-10-07T18:04:08.086Z,7.38
2022-10-07T18:06:37.706Z,7.20
2022-10-07T18:09:07.200Z,8.32
2022-10-07T18:11:53.179Z,7.15
2022-10-07T18:14:38.889Z,8.02
2022-10-07T18:17:07.805Z,7.13
2022-10-07T18:19:35.436Z,7.72
2022-10-07T18:22:05.001Z,8.60
2022-10-07T18:24:31.889Z,8.38
2022-10-07T18:27:01.094Z,8.70
2022-10-07T18:29:34.368Z,8.77
2022-10-07T18:32:01.497Z,8.27
2022-10-07T18:34:28.434Z,9.18
2022-10-07T18:36:57.198Z,8.30
2022-10-07T18:39:27.542Z,8.70
2022-10-07T18:41:55.336Z,8.98
2022-10-07T18:44:22.304Z,9.80
2022-10-07T18:46:49.592Z,10.05
2022-10-07T18:51:15.628Z,9.15
2022-10-07T18:55:19.500Z,9.00
2022-10-07T18:57:46.578Z,9.20
2022-10-07T19:00:14.476Z,9.07
2022-10-07T19:02:44.923Z,9.15
2022-10-07T19:05:12.011Z,9.98
2022-10-07T19:07:38.954Z,8.85
2022-10-07T19:10:06.467Z,9.10
2022-10-07T19:12:51.818Z,8.68
2022-10-07T19:15:18.924Z,8.55
2022-10-07T19:17:46.344Z,8.85
2022-10-07T19:20:13.543Z,8.82
2022-10-07T19:22:40.436Z,9.27
2022-10-07T19:25:27.785Z,9.20
2022-10-07T19:27:54.662Z,8.30
2022-10-07T19:30:21.577Z,8.82
2022-10-07T19:32:48.476Z,9.23
2022-10-07T19:35:15.428Z,8.25
2022-10-07T19:37:42.508Z,8.32
2022-10-07T19:40:11.193Z,8.60
2022-10-07T19:42:38.109Z,9.52
2022-10-07T19:45:06.934Z,9.25
2022-10-07T19:47:35.267Z,9.05
2022-10-07T19:50:02.165Z,9.77
2022-10-07T19:52:29.203Z,9.55
2022-10-07T19:54:56.060Z,11.10
2022-10-07T19:57:22.992Z,12.75
2022-10-07T19:59:49.977Z,13.13
2022-10-07T20:02:19.843Z,12.00
2022-10-07T20:04:46.817Z,12.32
2022-10-07T20:07:13.787Z,10.98
2022-10-07T20:09:40.704Z,9.80
2022-10-07T20:12:07.582Z,9.45
2022-10-07T20:14:35.342Z,9.85
2022-10-07T20:17:02.443Z,8.80
2022-10-07T20:19:29.447Z,9.05
2022-10-07T20:21:56.521Z,9.30
2022-10-07T20:24:23.395Z,9.15
2022-10-07T20:26:50.254Z,8.75
2022-10-07T20:29:20.370Z,9.68
2022-10-07T20:31:49.675Z,9.38
2022-10-07T20:34:18.858Z,8.77
2022-10-07T20:36:46.120Z,9.32
2022-10-07T20:39:37.955Z,9.32
2022-10-07T20:42:21.315Z,8.95
2022-10-07T20:44:49.507Z,9.38
2022-10-07T20:47:17.065Z,9.80
2022-10-07T20:49:44.007Z,9.75
2022-10-07T20:52:23.198Z,9.30
2022-10-07T20:54:51.210Z,10.80
2022-10-07T20:57:22.182Z,12.23
2022-10-07T20:59:49.984Z,14.25
2022-10-07T21:02:19.704Z,15.30
2022-10-07T21:04:49.223Z,13.38
2022-10-07T21:07:17.814Z,12.40
2022-10-07T21:09:45.450Z,11.95
2022-10-07T21:12:15.160Z,10.50
2022-10-07T21:14:43.151Z,10.40
2022-10-07T21:17:11.651Z,9.98
2022-10-07T21:19:38.615Z,10.25
2022-10-07T21:22:06.319Z,9.65
2022-10-07T21:24:36.279Z,9.32
2022-10-07T21:27:06.769Z,9.20
2022-10-07T21:29:38.955Z,9.45
2022-10-07T21:32:08.260Z,9.65
2022-10-07T21:34:35.204Z,9.70
2022-10-07T21:37:02.770Z,9.90
2022-10-07T21:39:29.868Z,9.68
2022-10-07T21:41:58.129Z,10.25
2022-10-07T21:44:26.841Z,9.27
2022-10-07T21:46:53.801Z,9.95
2022-10-07T21:49:20.679Z,9.77
2022-10-07T21:51:47.616Z,10.02
2022-10-07T21:54:15.492Z,9.90
2022-10-07T21:56:45.168Z,10.40
2022-10-07T21:59:12.931Z,9.40
2022-10-07T22:01:39.856Z,10.30
2022-10-07T22:04:08.129Z,10.13
2022-10-07T22:06:53.434Z,10.05
2022-10-07T22:09:21.400Z,9.85
2022-10-07T22:11:50.274Z,10.05
2022-10-07T22:14:18.768Z,10.40
2022-10-07T22:16:48.006Z,10.55
2022-10-07T22:19:16.650Z,10.27
2022-10-07T22:21:45.681Z,10.20
2022-10-07T22:24:12.848Z,10.20
2022-10-07T22:26:46.516Z,10.50
2022-10-07T22:29:16.487Z,10.40
2022-10-07T22:31:43.696Z,9.80
2022-10-07T22:34:30.584Z,9.93
2022-10-07T22:36:58.252Z,9.90
2022-10-07T22:39:26.373Z,10.15
2022-10-07T22:41:53.671Z,10.13
2022-10-07T22:44:20.745Z,11.05
2022-10-07T22:46:47.702Z,10.18
2022-10-07T22:49:15.122Z,10.35
2022-10-07T22:51:42.574Z,9.77
2022-10-07T22:54:13.316Z,9.38
2022-10-07T22:56:40.451Z,10.25
2022-10-07T22:59:08.633Z,10.52
2022-10-07T23:01:35.906Z,9.93
2022-10-07T23:04:03.718Z,10.30
2022-10-07T23:06:33.655Z,9.98
2022-10-07T23:09:01.791Z,10.25
2022-10-07T23:11:30.194Z,10.98
2022-10-07T23:13:57.223Z,11.07
2022-10-07T23:16:29.544Z,10.98
2022-10-07T23:18:56.892Z,11.18
2022-10-07T23:21:29.258Z,11.10
2022-10-07T23:24:05.898Z,11.88
2022-10-07T23:26:34.927Z,11.32
2022-10-07T23:29:02.472Z,10.55
2022-10-07T23:31:31.822Z,11.00
2022-10-07T23:34:01.006Z,11.68
2022-10-07T23:36:28.786Z,10.55
2022-10-07T23:38:56.026Z,10.65
2022-10-07T23:41:26.172Z,11.07
2022-10-07T23:43:55.709Z,11.65
2022-10-07T23:46:25.102Z,12.65
2022-10-07T23:48:52.812Z,11.93
2022-10-07T23:51:22.439Z,11.82
2022-10-07T23:53:49.870Z,12.50
2022-10-07T23:56:18.665Z,11.40
2022-10-07T23:58:45.804Z,11.70
